sensor_id;sensor_type;location;lat;lon;timestamp;P1;durP1;ratioP1;P2;durP2;ratioP2
21589;SDS011;10957;50.968;6.828;2023-05-10T00:04:25;5.75;;;5.50;;
21589;SDS011;10957;50.968;6.828;2023-05-10T00:09:28;5.10;;;4.90;;
21589;SDS011;10957;50.968;6.828;2023-05-10T00:14:29;5.30;;;5.10;;
21589;SDS011;10957;50.968;6.828;2023-05-10T00:19:30;5.30;;;4.90;;
21589;SDS011;10957;50.968;6.828;2023-05-10T00:24:32;5.30;;;5.10;;
21589;SDS011;10957;50.968;6.828;2023-05-10T00:29:33;5.75;;;5.47;;
21589;SDS011;10957;50.968;6.828;2023-05-10T00:34:34;5.28;;;5.07;;
21589;SDS011;10957;50.968;6.828;2023-05-10T00:39:35;6.07;;;5.78;;
21589;SDS011;10957;50.968;6.828;2023-05-10T00:44:37;5.20;;;5.00;;
21589;SDS011;10957;50.968;6.828;2023-05-10T00:49:38;5.30;;;5.10;;
21589;SDS011;10957;50.968;6.828;2023-05-10T00:54:40;5.40;;;5.20;;
21589;SDS011;10957;50.968;6.828;2023-05-10T00:59:41;5.82;;;5.53;;
21589;SDS011;10957;50.968;6.828;2023-05-10T01:04:43;5.40;;;5.20;;
21589;SDS011;10957;50.968;6.828;2023-05-10T01:09:44;5.30;;;5.10;;
21589;SDS011;10957;50.968;6.828;2023-05-10T01:14:46;5.40;;;5.20;;
21589;SDS011;10957;50.968;6.828;2023-05-10T01:19:47;5.55;;;5.25;;
21589;SDS011;10957;50.968;6.828;2023-05-10T01:35:30;4.90;;;4.70;;
21589;SDS011;10957;50.968;6.828;2023-05-10T01:40:45;4.78;;;4.57;;
21589;SDS011;10957;50.968;6.828;2023-05-10T01:46:02;6.70;;;6.40;;
21589;SDS011;10957;50.968;6.828;2023-05-10T01:51:11;5.63;;;5.32;;
21589;SDS011;10957;50.968;6.828;2023-05-10T01:56:14;5.03;;;4.82;;
21589;SDS011;10957;50.968;6.828;2023-05-10T02:01:16;6.05;;;5.75;;
21589;SDS011;10957;50.968;6.828;2023-05-10T02:06:21;5.03;;;4.82;;
21589;SDS011;10957;50.968;6.828;2023-05-10T02:11:24;4.90;;;4.70;;
21589;SDS011;10957;50.968;6.828;2023-05-10T02:16:26;4.90;;;4.70;;
21589;SDS011;10957;50.968;6.828;2023-05-10T02:21:28;4.85;;;4.65;;
21589;SDS011;10957;50.968;6.828;2023-05-10T02:26:31;4.97;;;4.78;;
21589;SDS011;10957;50.968;6.828;2023-05-10T02:31:35;4.80;;;4.60;;
21589;SDS011;10957;50.968;6.828;2023-05-10T02:36:39;4.90;;;4.70;;
21589;SDS011;10957;50.968;6.828;2023-05-10T02:41:41;5.00;;;4.80;;
21589;SDS011;10957;50.968;6.828;2023-05-10T02:46:44;5.55;;;5.25;;
21589;SDS011;10957;50.968;6.828;2023-05-10T02:51:47;5.70;;;5.40;;
21589;SDS011;10957;50.968;6.828;2023-05-10T02:56:53;4.60;;;4.40;;
21589;SDS011;10957;50.968;6.828;2023-05-10T03:01:58;5.50;;;5.30;;
21589;SDS011;10957;50.968;6.828;2023-05-10T03:07:01;4.50;;;4.30;;
21589;SDS011;10957;50.968;6.828;2023-05-10T03:17:36;4.50;;;4.30;;
21589;SDS011;10957;50.968;6.828;2023-05-10T03:23:04;4.82;;;4.63;;
21589;SDS011;10957;50.968;6.828;2023-05-10T03:28:12;4.40;;;4.20;;
21589;SDS011;10957;50.968;6.828;2023-05-10T03:33:16;5.15;;;4.85;;
21589;SDS011;10957;50.968;6.828;2023-05-10T03:38:20;5.03;;;4.82;;
21589;SDS011;10957;50.968;6.828;2023-05-10T03:43:21;5.45;;;5.22;;
21589;SDS011;10957;50.968;6.828;2023-05-10T03:48:22;5.20;;;4.90;;
21589;SDS011;10957;50.968;6.828;2023-05-10T03:53:24;5.20;;;4.90;;
21589;SDS011;10957;50.968;6.828;2023-05-10T03:58:26;5.30;;;5.10;;
21589;SDS011;10957;50.968;6.828;2023-05-10T04:03:27;5.82;;;5.57;;
21589;SDS011;10957;50.968;6.828;2023-05-10T04:08:28;4.95;;;4.75;;
21589;SDS011;10957;50.968;6.828;2023-05-10T04:13:31;5.38;;;5.15;;
21589;SDS011;10957;50.968;6.828;2023-05-10T04:18:32;5.45;;;5.15;;
21589;SDS011;10957;50.968;6.828;2023-05-10T04:23:34;4.97;;;4.78;;
21589;SDS011;10957;50.968;6.828;2023-05-10T04:28:35;4.90;;;4.70;;
21589;SDS011;10957;50.968;6.828;2023-05-10T04:33:36;5.07;;;4.88;;
21589;SDS011;10957;50.968;6.828;2023-05-10T04:38:38;5.25;;;5.00;;
21589;SDS011;10957;50.968;6.828;2023-05-10T04:43:39;5.43;;;5.22;;
21589;SDS011;10957;50.968;6.828;2023-05-10T04:48:40;5.35;;;5.05;;
21589;SDS011;10957;50.968;6.828;2023-05-10T04:53:41;5.13;;;4.93;;
21589;SDS011;10957;50.968;6.828;2023-05-10T04:58:43;5.05;;;4.75;;
21589;SDS011;10957;50.968;6.828;2023-05-10T05:03:44;5.20;;;5.00;;
21589;SDS011;10957;50.968;6.828;2023-05-10T05:08:46;4.88;;;4.68;;
21589;SDS011;10957;50.968;6.828;2023-05-10T05:13:47;4.90;;;4.70;;
21589;SDS011;10957;50.968;6.828;2023-05-10T05:18:48;4.63;;;4.43;;
21589;SDS011;10957;50.968;6.828;2023-05-10T05:23:50;4.75;;;4.55;;
21589;SDS011;10957;50.968;6.828;2023-05-10T05:28:51;5.15;;;4.85;;
21589;SDS011;10957;50.968;6.828;2023-05-10T05:33:55;5.05;;;4.85;;
21589;SDS011;10957;50.968;6.828;2023-05-10T05:38:56;4.50;;;4.30;;
21589;SDS011;10957;50.968;6.828;2023-05-10T05:43:58;5.30;;;5.10;;
21589;SDS011;10957;50.968;6.828;2023-05-10T05:48:59;6.30;;;5.90;;
21589;SDS011;10957;50.968;6.828;2023-05-10T05:54:00;6.90;;;6.50;;
21589;SDS011;10957;50.968;6.828;2023-05-10T05:59:02;6.25;;;5.95;;
21589;SDS011;10957;50.968;6.828;2023-05-10T06:04:04;8.23;;;5.57;;
21589;SDS011;10957;50.968;6.828;2023-05-10T06:09:05;5.70;;;5.40;;
21589;SDS011;10957;50.968;6.828;2023-05-10T06:14:06;6.05;;;5.65;;
21589;SDS011;10957;50.968;6.828;2023-05-10T06:19:08;6.43;;;6.10;;
21589;SDS011;10957;50.968;6.828;2023-05-10T06:24:09;5.75;;;5.45;;
21589;SDS011;10957;50.968;6.828;2023-05-10T06:29:11;5.65;;;5.45;;
21589;SDS011;10957;50.968;6.828;2023-05-10T06:34:12;5.63;;;5.43;;
21589;SDS011;10957;50.968;6.828;2023-05-10T06:39:14;6.78;;;6.25;;
21589;SDS011;10957;50.968;6.828;2023-05-10T06:44:15;6.28;;;5.90;;
21589;SDS011;10957;50.968;6.828;2023-05-10T06:49:17;6.05;;;5.68;;
21589;SDS011;10957;50.968;6.828;2023-05-10T06:54:18;6.53;;;6.03;;
21589;SDS011;10957;50.968;6.828;2023-05-10T06:59:20;5.38;;;5.18;;
21589;SDS011;10957;50.968;6.828;2023-05-10T07:04:22;4.90;;;4.70;;
21589;SDS011;10957;50.968;6.828;2023-05-10T07:09:23;4.72;;;4.53;;
21589;SDS011;10957;50.968;6.828;2023-05-10T07:14:25;5.10;;;4.80;;
21589;SDS011;10957;50.968;6.828;2023-05-10T07:19:26;4.60;;;4.40;;
21589;SDS011;10957;50.968;6.828;2023-05-10T07:24:27;5.00;;;4.80;;
21589;SDS011;10957;50.968;6.828;2023-05-10T07:29:28;6.03;;;5.68;;
21589;SDS011;10957;50.968;6.828;2023-05-10T07:34:30;5.55;;;5.18;;
21589;SDS011;10957;50.968;6.828;2023-05-10T07:39:32;5.10;;;4.88;;
21589;SDS011;10957;50.968;6.828;2023-05-10T07:44:33;5.70;;;5.40;;
21589;SDS011;10957;50.968;6.828;2023-05-10T07:49:34;5.97;;;5.68;;
21589;SDS011;10957;50.968;6.828;2023-05-10T07:54:37;5.60;;;5.30;;
21589;SDS011;10957;50.968;6.828;2023-05-10T07:59:38;5.50;;;5.20;;
21589;SDS011;10957;50.968;6.828;2023-05-10T08:04:40;4.90;;;4.70;;
21589;SDS011;10957;50.968;6.828;2023-05-10T08:09:41;4.95;;;4.75;;
21589;SDS011;10957;50.968;6.828;2023-05-10T08:14:42;5.30;;;5.10;;
21589;SDS011;10957;50.968;6.828;2023-05-10T08:19:43;5.85;;;5.55;;
21589;SDS011;10957;50.968;6.828;2023-05-10T08:24:45;5.10;;;4.90;;
21589;SDS011;10957;50.968;6.828;2023-05-10T08:29:46;6.03;;;5.72;;
21589;SDS011;10957;50.968;6.828;2023-05-10T08:34:47;6.13;;;5.82;;
21589;SDS011;10957;50.968;6.828;2023-05-10T08:39:48;5.78;;;5.47;;
21589;SDS011;10957;50.968;6.828;2023-05-10T08:44:50;6.15;;;5.85;;
21589;SDS011;10957;50.968;6.828;2023-05-10T08:49:52;6.25;;;5.95;;
21589;SDS011;10957;50.968;6.828;2023-05-10T08:54:56;5.72;;;5.43;;
21589;SDS011;10957;50.968;6.828;2023-05-10T08:59:57;6.68;;;6.28;;
21589;SDS011;10957;50.968;6.828;2023-05-10T09:05:01;6.15;;;5.85;;
21589;SDS011;10957;50.968;6.828;2023-05-10T09:10:04;5.40;;;5.20;;
21589;SDS011;10957;50.968;6.828;2023-05-10T09:15:06;7.60;;;6.57;;
21589;SDS011;10957;50.968;6.828;2023-05-10T09:20:09;6.68;;;6.25;;
21589;SDS011;10957;50.968;6.828;2023-05-10T09:25:11;5.05;;;4.85;;
21589;SDS011;10957;50.968;6.828;2023-05-10T09:30:22;5.78;;;5.38;;
21589;SDS011;10957;50.968;6.828;2023-05-10T09:35:27;4.68;;;4.47;;
21589;SDS011;10957;50.968;6.828;2023-05-10T09:40:39;4.75;;;4.50;;
21589;SDS011;10957;50.968;6.828;2023-05-10T09:45:40;5.10;;;4.80;;
21589;SDS011;10957;50.968;6.828;2023-05-10T09:50:42;11.20;;;4.28;;
21589;SDS011;10957;50.968;6.828;2023-05-10T09:55:43;4.32;;;4.13;;
21589;SDS011;10957;50.968;6.828;2023-05-10T10:00:46;4.50;;;4.30;;
21589;SDS011;10957;50.968;6.828;2023-05-10T10:05:51;4.50;;;4.30;;
21589;SDS011;10957;50.968;6.828;2023-05-10T10:10:56;4.30;;;4.10;;
21589;SDS011;10957;50.968;6.828;2023-05-10T10:15:57;5.35;;;5.05;;
21589;SDS011;10957;50.968;6.828;2023-05-10T10:20:59;4.38;;;4.18;;
21589;SDS011;10957;50.968;6.828;2023-05-10T10:26:01;4.30;;;4.10;;
21589;SDS011;10957;50.968;6.828;2023-05-10T10:31:13;3.95;;;3.80;;
21589;SDS011;10957;50.968;6.828;2023-05-10T10:36:24;4.22;;;4.03;;
21589;SDS011;10957;50.968;6.828;2023-05-10T10:46:33;4.70;;;4.50;;
21589;SDS011;10957;50.968;6.828;2023-05-10T10:51:38;4.38;;;4.18;;
21589;SDS011;10957;50.968;6.828;2023-05-10T10:56:45;4.53;;;4.32;;
21589;SDS011;10957;50.968;6.828;2023-05-10T11:02:32;4.18;;;3.97;;
21589;SDS011;10957;50.968;6.828;2023-05-10T11:07:35;4.78;;;4.57;;
21589;SDS011;10957;50.968;6.828;2023-05-10T11:12:45;4.25;;;4.05;;
21589;SDS011;10957;50.968;6.828;2023-05-10T11:17:52;4.78;;;4.50;;
21589;SDS011;10957;50.968;6.828;2023-05-10T11:22:54;4.43;;;4.22;;
21589;SDS011;10957;50.968;6.828;2023-05-10T11:27:56;3.80;;;3.70;;
21589;SDS011;10957;50.968;6.828;2023-05-10T11:32:57;3.97;;;3.78;;
21589;SDS011;10957;50.968;6.828;2023-05-10T11:37:58;4.28;;;4.07;;
21589;SDS011;10957;50.968;6.828;2023-05-10T11:43:00;3.80;;;3.70;;
21589;SDS011;10957;50.968;6.828;2023-05-10T11:48:02;4.05;;;3.85;;
21589;SDS011;10957;50.968;6.828;2023-05-10T11:53:03;4.63;;;4.43;;
21589;SDS011;10957;50.968;6.828;2023-05-10T11:58:05;3.70;;;3.60;;
21589;SDS011;10957;50.968;6.828;2023-05-10T12:03:06;4.10;;;3.90;;
21589;SDS011;10957;50.968;6.828;2023-05-10T12:08:14;4.05;;;3.85;;
21589;SDS011;10957;50.968;6.828;2023-05-10T12:13:16;4.30;;;4.10;;
21589;SDS011;10957;50.968;6.828;2023-05-10T12:18:22;4.10;;;3.90;;
21589;SDS011;10957;50.968;6.828;2023-05-10T12:23:25;3.75;;;3.63;;
21589;SDS011;10957;50.968;6.828;2023-05-10T12:28:29;4.00;;;3.80;;
21589;SDS011;10957;50.968;6.828;2023-05-10T12:38:40;4.60;;;4.40;;
21589;SDS011;10957;50.968;6.828;2023-05-10T12:43:48;4.22;;;4.03;;
21589;SDS011;10957;50.968;6.828;2023-05-10T12:48:49;5.88;;;4.10;;
21589;SDS011;10957;50.968;6.828;2023-05-10T12:53:55;3.80;;;3.70;;
21589;SDS011;10957;50.968;6.828;2023-05-10T12:58:56;4.00;;;3.85;;
21589;SDS011;10957;50.968;6.828;2023-05-10T13:03:58;4.10;;;3.90;;
21589;SDS011;10957;50.968;6.828;2023-05-10T13:09:01;4.10;;;3.90;;
21589;SDS011;10957;50.968;6.828;2023-05-10T13:14:03;3.60;;;3.50;;
21589;SDS011;10957;50.968;6.828;2023-05-10T13:19:04;4.13;;;3.92;;
21589;SDS011;10957;50.968;6.828;2023-05-10T13:24:05;4.25;;;4.05;;
21589;SDS011;10957;50.968;6.828;2023-05-10T13:29:07;3.92;;;3.72;;
21589;SDS011;10957;50.968;6.828;2023-05-10T13:34:08;3.78;;;3.67;;
21589;SDS011;10957;50.968;6.828;2023-05-10T13:39:10;3.70;;;3.60;;
21589;SDS011;10957;50.968;6.828;2023-05-10T13:44:14;3.72;;;3.63;;
21589;SDS011;10957;50.968;6.828;2023-05-10T13:49:16;3.80;;;3.70;;
21589;SDS011;10957;50.968;6.828;2023-05-10T13:54:17;3.90;;;3.80;;
21589;SDS011;10957;50.968;6.828;2023-05-10T13:59:20;4.60;;;4.40;;
21589;SDS011;10957;50.968;6.828;2023-05-10T14:04:21;3.80;;;3.70;;
21589;SDS011;10957;50.968;6.828;2023-05-10T14:09:22;3.53;;;3.42;;
21589;SDS011;10957;50.968;6.828;2023-05-10T14:14:24;4.10;;;3.90;;
21589;SDS011;10957;50.968;6.828;2023-05-10T14:19:25;3.50;;;3.40;;
21589;SDS011;10957;50.968;6.828;2023-05-10T14:24:27;4.00;;;3.80;;
21589;SDS011;10957;50.968;6.828;2023-05-10T14:29:29;4.65;;;4.45;;
21589;SDS011;10957;50.968;6.828;2023-05-10T14:34:30;4.20;;;4.00;;
21589;SDS011;10957;50.968;6.828;2023-05-10T14:39:31;4.30;;;4.10;;
21589;SDS011;10957;50.968;6.828;2023-05-10T14:44:33;4.30;;;4.10;;
21589;SDS011;10957;50.968;6.828;2023-05-10T14:49:35;4.10;;;3.90;;
21589;SDS011;10957;50.968;6.828;2023-05-10T14:54:36;4.20;;;4.00;;
21589;SDS011;10957;50.968;6.828;2023-05-10T14:59:37;3.90;;;3.80;;
21589;SDS011;10957;50.968;6.828;2023-05-10T15:04:38;3.83;;;3.63;;
21589;SDS011;10957;50.968;6.828;2023-05-10T15:09:40;3.60;;;3.50;;
21589;SDS011;10957;50.968;6.828;2023-05-10T15:14:41;3.60;;;3.50;;
21589;SDS011;10957;50.968;6.828;2023-05-10T15:19:42;3.75;;;3.65;;
21589;SDS011;10957;50.968;6.828;2023-05-10T15:24:44;3.80;;;3.70;;
21589;SDS011;10957;50.968;6.828;2023-05-10T15:29:45;3.63;;;3.53;;
21589;SDS011;10957;50.968;6.828;2023-05-10T15:34:46;3.50;;;3.40;;
21589;SDS011;10957;50.968;6.828;2023-05-10T15:39:48;3.65;;;3.55;;
21589;SDS011;10957;50.968;6.828;2023-05-10T15:44:49;3.90;;;3.80;;
21589;SDS011;10957;50.968;6.828;2023-05-10T15:49:50;3.67;;;3.53;;
21589;SDS011;10957;50.968;6.828;2023-05-10T15:54:52;3.70;;;3.60;;
21589;SDS011;10957;50.968;6.828;2023-05-10T15:59:53;4.05;;;3.85;;
21589;SDS011;10957;50.968;6.828;2023-05-10T16:04:56;3.80;;;3.70;;
21589;SDS011;10957;50.968;6.828;2023-05-10T16:09:57;3.80;;;3.60;;
21589;SDS011;10957;50.968;6.828;2023-05-10T16:14:59;3.53;;;3.40;;
21589;SDS011;10957;50.968;6.828;2023-05-10T16:20:00;3.60;;;3.50;;
21589;SDS011;10957;50.968;6.828;2023-05-10T16:25:01;3.30;;;3.20;;
21589;SDS011;10957;50.968;6.828;2023-05-10T16:30:04;3.42;;;3.33;;
21589;SDS011;10957;50.968;6.828;2023-05-10T16:35:06;3.80;;;3.60;;
21589;SDS011;10957;50.968;6.828;2023-05-10T16:40:08;3.70;;;3.60;;
21589;SDS011;10957;50.968;6.828;2023-05-10T16:45:09;4.15;;;3.95;;
21589;SDS011;10957;50.968;6.828;2023-05-10T16:50:11;4.10;;;3.90;;
21589;SDS011;10957;50.968;6.828;2023-05-10T16:55:14;4.20;;;4.00;;
21589;SDS011;10957;50.968;6.828;2023-05-10T17:00:15;3.90;;;3.70;;
21589;SDS011;10957;50.968;6.828;2023-05-10T17:05:17;3.53;;;3.42;;
21589;SDS011;10957;50.968;6.828;2023-05-10T17:10:18;3.80;;;3.70;;
21589;SDS011;10957;50.968;6.828;2023-05-10T17:15:20;3.80;;;3.70;;
21589;SDS011;10957;50.968;6.828;2023-05-10T17:20:21;3.70;;;3.60;;
21589;SDS011;10957;50.968;6.828;2023-05-10T17:25:22;4.28;;;4.07;;
21589;SDS011;10957;50.968;6.828;2023-05-10T17:30:23;3.95;;;3.80;;
21589;SDS011;10957;50.968;6.828;2023-05-10T17:35:28;4.30;;;4.10;;
21589;SDS011;10957;50.968;6.828;2023-05-10T17:40:31;3.90;;;3.80;;
21589;SDS011;10957;50.968;6.828;2023-05-10T17:45:32;4.18;;;3.97;;
21589;SDS011;10957;50.968;6.828;2023-05-10T17:50:33;4.40;;;4.20;;
21589;SDS011;10957;50.968;6.828;2023-05-10T17:55:35;4.40;;;4.20;;
21589;SDS011;10957;50.968;6.828;2023-05-10T18:00:38;4.50;;;4.30;;
21589;SDS011;10957;50.968;6.828;2023-05-10T18:05:40;4.45;;;4.25;;
21589;SDS011;10957;50.968;6.828;2023-05-10T18:10:41;4.45;;;4.25;;
21589;SDS011;10957;50.968;6.828;2023-05-10T18:15:43;4.90;;;4.70;;
21589;SDS011;10957;50.968;6.828;2023-05-10T18:20:44;4.70;;;4.50;;
21589;SDS011;10957;50.968;6.828;2023-05-10T18:25:46;4.95;;;4.75;;
21589;SDS011;10957;50.968;6.828;2023-05-10T18:30:47;4.70;;;4.50;;
21589;SDS011;10957;50.968;6.828;2023-05-10T18:35:48;4.30;;;4.10;;
21589;SDS011;10957;50.968;6.828;2023-05-10T18:40:50;5.93;;;5.63;;
21589;SDS011;10957;50.968;6.828;2023-05-10T18:45:51;5.05;;;4.85;;
21589;SDS011;10957;50.968;6.828;2023-05-10T18:50:52;4.78;;;4.57;;
21589;SDS011;10957;50.968;6.828;2023-05-10T18:55:54;4.80;;;4.60;;
21589;SDS011;10957;50.968;6.828;2023-05-10T19:00:57;6.00;;;5.70;;
21589;SDS011;10957;50.968;6.828;2023-05-10T19:05:58;4.70;;;4.50;;
21589;SDS011;10957;50.968;6.828;2023-05-10T19:11:00;4.60;;;4.40;;
21589;SDS011;10957;50.968;6.828;2023-05-10T19:16:05;4.20;;;4.00;;
21589;SDS011;10957;50.968;6.828;2023-05-10T19:21:10;4.50;;;4.30;;
21589;SDS011;10957;50.968;6.828;2023-05-10T19:26:11;4.90;;;4.70;;
21589;SDS011;10957;50.968;6.828;2023-05-10T19:31:13;4.78;;;4.57;;
21589;SDS011;10957;50.968;6.828;2023-05-10T19:36:14;5.03;;;4.82;;
21589;SDS011;10957;50.968;6.828;2023-05-10T19:41:15;6.05;;;5.47;;
21589;SDS011;10957;50.968;6.828;2023-05-10T19:46:17;4.90;;;4.70;;
21589;SDS011;10957;50.968;6.828;2023-05-10T19:51:18;4.82;;;4.63;;
21589;SDS011;10957;50.968;6.828;2023-05-10T19:56:19;4.90;;;4.70;;
21589;SDS011;10957;50.968;6.828;2023-05-10T20:01:21;5.80;;;5.50;;
21589;SDS011;10957;50.968;6.828;2023-05-10T20:06:23;5.40;;;5.20;;
21589;SDS011;10957;50.968;6.828;2023-05-10T20:11:24;5.20;;;5.00;;
21589;SDS011;10957;50.968;6.828;2023-05-10T20:16:26;5.40;;;5.20;;
21589;SDS011;10957;50.968;6.828;2023-05-10T20:21:27;5.40;;;5.20;;
21589;SDS011;10957;50.968;6.828;2023-05-10T20:26:28;6.00;;;5.70;;
21589;SDS011;10957;50.968;6.828;2023-05-10T20:31:29;5.63;;;5.43;;
21589;SDS011;10957;50.968;6.828;2023-05-10T20:36:31;6.30;;;5.95;;
21589;SDS011;10957;50.968;6.828;2023-05-10T20:41:32;6.03;;;5.72;;
21589;SDS011;10957;50.968;6.828;2023-05-10T20:46:33;6.00;;;5.70;;
21589;SDS011;10957;50.968;6.828;2023-05-10T20:51:34;6.25;;;5.95;;
21589;SDS011;10957;50.968;6.828;2023-05-10T20:56:36;6.10;;;5.80;;
21589;SDS011;10957;50.968;6.828;2023-05-10T21:01:37;5.78;;;5.57;;
21589;SDS011;10957;50.968;6.828;2023-05-10T21:06:38;5.70;;;5.50;;
21589;SDS011;10957;50.968;6.828;2023-05-10T21:11:39;6.38;;;6.07;;
21589;SDS011;10957;50.968;6.828;2023-05-10T21:16:41;6.05;;;5.75;;
21589;SDS011;10957;50.968;6.828;2023-05-10T21:21:42;6.20;;;5.80;;
21589;SDS011;10957;50.968;6.828;2023-05-10T21:26:43;6.18;;;5.88;;
21589;SDS011;10957;50.968;6.828;2023-05-10T21:31:45;5.88;;;5.60;;
21589;SDS011;10957;50.968;6.828;2023-05-10T21:36:46;5.90;;;5.63;;
21589;SDS011;10957;50.968;6.828;2023-05-10T21:41:48;6.20;;;5.90;;
21589;SDS011;10957;50.968;6.828;2023-05-10T21:46:49;6.88;;;6.57;;
21589;SDS011;10957;50.968;6.828;2023-05-10T21:51:50;6.35;;;5.95;;
21589;SDS011;10957;50.968;6.828;2023-05-10T21:56:52;6.15;;;5.85;;
21589;SDS011;10957;50.968;6.828;2023-05-10T22:01:53;6.22;;;5.93;;
21589;SDS011;10957;50.968;6.828;2023-05-10T22:06:54;7.15;;;6.70;;
21589;SDS011;10957;50.968;6.828;2023-05-10T22:11:55;5.95;;;5.55;;
21589;SDS011;10957;50.968;6.828;2023-05-10T22:16:57;6.10;;;5.80;;
21589;SDS011;10957;50.968;6.828;2023-05-10T22:21:58;6.38;;;6.05;;
21589;SDS011;10957;50.968;6.828;2023-05-10T22:27:00;6.07;;;5.78;;
21589;SDS011;10957;50.968;6.828;2023-05-10T22:32:02;6.30;;;6.00;;
21589;SDS011;10957;50.968;6.828;2023-05-10T22:37:06;6.38;;;6.07;;
21589;SDS011;10957;50.968;6.828;2023-05-10T22:42:07;6.50;;;6.20;;
21589;SDS011;10957;50.968;6.828;2023-05-10T22:47:09;6.35;;;6.05;;
21589;SDS011;10957;50.968;6.828;2023-05-10T22:52:10;6.03;;;5.72;;
21589;SDS011;10957;50.968;6.828;2023-05-10T22:57:11;6.28;;;5.97;;
21589;SDS011;10957;50.968;6.828;2023-05-10T23:02:16;6.22;;;5.93;;
21589;SDS011;10957;50.968;6.828;2023-05-10T23:07:17;6.32;;;6.03;;
21589;SDS011;10957;50.968;6.828;2023-05-10T23:12:18;6.72;;;6.43;;
21589;SDS011;10957;50.968;6.828;2023-05-10T23:17:20;6.20;;;5.90;;
21589;SDS011;10957;50.968;6.828;2023-05-10T23:22:21;6.88;;;6.47;;
21589;SDS011;10957;50.968;6.828;2023-05-10T23:27:22;6.85;;;6.45;;
21589;SDS011;10957;50.968;6.828;2023-05-10T23:32:23;6.60;;;6.30;;
21589;SDS011;10957;50.968;6.828;2023-05-10T23:37:25;6.30;;;6.00;;
21589;SDS011;10957;50.968;6.828;2023-05-10T23:42:27;6.45;;;6.15;;
21589;SDS011;10957;50.968;6.828;2023-05-10T23:47:28;6.22;;;5.93;;
21589;SDS011;10957;50.968;6.828;2023-05-10T23:52:30;6.20;;;5.90;;
21589;SDS011;10957;50.968;6.828;2023-05-10T23:57:31;6.40;;;6.10;;
